European Highlander — C6SN6 — position and weather

sailwx.info

Track history (hours):
 
Tides and Currents Weather Stations Pressure Air Temp Water Temp Dewpoint Dewpoint Depression Visibility Wind Speed Wind Dir Waves Ship Positions

European Highlander

Operator: P&O Irish Sea Ltd

Last reported at 2019-Dec-11 06:00 UTC. Time now 2019-Dec-11 06:45 UTC.
Position N 54°51' W 005°48'.

Length 161 m; draft 5.5 m.

Type: Ship. MMSI: 311404000.

Date/timePositionNaut miles runAvg speedWind from/ knotsBaromVisibWave heightAir tempDewpointWater temp
2019-Dec-11 06:00N 54°51' W 005°48'0 0.0
2019-Dec-10 22:52N 54°51' W 005°48'21 4.6
2019-Dec-10 18:18N 55°00' W 005°15'2110.6
2019-Dec-10 16:19N 54°51' W 005°48'20 4.8
2019-Dec-10 12:05N 55°03' W 005°20'1521.3
2019-Dec-10 11:22N 54°53' W 005°39'5 5.9
2019-Dec-10 10:28N 54°51' W 005°48'16 9.8
2019-Dec-10 08:51N 55°01' W 005°27'7 1.6
2019-Dec-10 04:31N 54°55' W 005°34'9 7.5
2019-Dec-10 03:17N 54°51' W 005°48'0 0.0
2019-Dec-10 02:53N 54°51' W 005°48'0 0.0
2019-Dec-10 01:59N 54°51' W 005°48'6 1.0
2019-Dec-09 20:25N 54°54' W 005°39'613.8
2019-Dec-09 20:00N 54°51' W 005°48'0 0.0
2019-Dec-09 06:49N 54°51' W 005°48'0 0.0
2019-Dec-08 22:04N 54°51' W 005°48'21 4.9
2019-Dec-08 17:45N 54°60' W 005°14'1417.9
2019-Dec-08 16:59N 54°54' W 005°36'14 1.7
2019-Dec-08 08:45N 55°01' W 005°14'22 4.1
2019-Dec-08 03:24N 54°51' W 005°48'0 0.0
2019-Dec-08 03:00N 54°51' W 005°48'0 0.0
2019-Dec-08 02:24N 54°51' W 005°48'0 0.0
2019-Dec-08 01:21N 54°51' W 005°48'0 0.0
2019-Dec-07 23:30N 54°51' W 005°48'20 6.7
2019-Dec-07 20:27N 55°00' W 005°16'20 4.0
2019-Dec-07 15:22N 54°51' W 005°48'1615.2
2019-Dec-07 14:19N 54°59' W 005°23'16 4.2
2019-Dec-07 10:30N 54°51' W 005°48'0 0.1
2019-Dec-07 09:28N 54°51' W 005°48'7 1.3
2019-Dec-07 04:15N 54°54' W 005°37'7 4.7
2019-Dec-07 02:50N 54°51' W 005°48'15 7.8
2019-Dec-07 00:55N 54°58' W 005°25'15 3.0
2019-Dec-06 20:00N 54°51' W 005°48'0 0.1
2019-Dec-06 19:13N 54°51' W 005°48'13 2.6
2019-Dec-06 14:17N 54°56' W 005°28'717.7
2019-Dec-06 13:54N 54°54' W 005°38'6 6.3
2019-Dec-06 12:55N 54°51' W 005°48'0 0.0
2019-Dec-06 12:29N 54°51' W 005°48'0 0.0
2019-Dec-06 06:48N 54°51' W 005°48'0 0.0
2019-Dec-06 06:24N 54°51' W 005°48'21 4.1
2019-Dec-06 01:13N 54°60' W 005°14'21 7.8
2019-Dec-05 22:29N 54°51' W 005°48'9 1.6
2019-Dec-05 17:11N 54°55' W 005°35'912.6
2019-Dec-05 16:30N 54°51' W 005°48'0 0.0
2019-Dec-05 15:30N 54°51' W 005°48'22 2.1
2019-Dec-05 05:12N 55°00' W 005°14'1318.3
2019-Dec-05 04:30N 54°55' W 005°34'9 3.6
2019-Dec-05 02:00N 54°51' W 005°48'2016.6
2019-Dec-05 00:48N 55°01' W 005°18'20 3.2
2019-Dec-04 18:36N 54°51' W 005°48'15 1.5
2019-Dec-04 08:21N 54°57' W 005°24'15 7.1
2019-Dec-04 06:14N 54°51' W 005°48'8 1.4
2019-Dec-04 00:27N 54°54' W 005°34'4 1.3
2019-Dec-03 21:30N 54°53' W 005°41'1516.8
2019-Dec-03 20:34N 55°00' W 005°17'13 3.6
2019-Dec-03 16:58N 54°54' W 005°37'7 0.9
2019-Dec-03 09:29N 54°51' W 005°48'22 5.1
2019-Dec-03 05:13N 55°01' W 005°14'1317.6
2019-Dec-03 04:30N 54°55' W 005°34'916.1
2019-Dec-03 03:57N 54°51' W 005°48'0 0.2
2019-Dec-03 03:14N 54°51' W 005°48'23 8.6
2019-Dec-03 00:30N 55°01' W 005°11'0 0.1
2019-Dec-02 21:23N 55°01' W 005°10'2411.4
2019-Dec-02 19:17N 54°51' W 005°48'0 0.0
2019-Dec-02 18:21N 54°51' W 005°48'1615.9
2019-Dec-02 17:19N 54°59' W 005°23'8 0.8
2019-Dec-02 08:08N 54°55' W 005°34'913.0
2019-Dec-02 07:26N 54°51' W 005°48'0 0.0
2019-Dec-02 06:42N 54°51' W 005°48'0 0.0
2019-Dec-02 05:58N 54°51' W 005°48'0 0.0
2019-Dec-01 16:29N 54°51' W 005°48'  
Track history (hours):
 
Tides and Currents Weather Stations Pressure Air Temp Water Temp Dewpoint Dewpoint Depression Visibility Wind Speed Wind Dir Waves Ship Positions

European Highlander

Operator: P&O Irish Sea Ltd

Last reported at 2019-Dec-11 06:00 UTC. Time now 2019-Dec-11 06:45 UTC.
Position N 54°51' W 005°48'.

Length 161 m; draft 5.5 m.

Type: Ship. MMSI: 311404000.

Date/timePositionNaut miles runAvg speedWind from/ knotsBaromVisibWave heightAir tempDewpointWater temp
2019-Dec-11 06:00N 54°51' W 005°48'0 0.0
2019-Dec-10 22:52N 54°51' W 005°48'21 4.6
2019-Dec-10 18:18N 55°00' W 005°15'2110.6
2019-Dec-10 16:19N 54°51' W 005°48'20 4.8
2019-Dec-10 12:05N 55°03' W 005°20'1521.3
2019-Dec-10 11:22N 54°53' W 005°39'5 5.9
2019-Dec-10 10:28N 54°51' W 005°48'16 9.8
2019-Dec-10 08:51N 55°01' W 005°27'7 1.6
2019-Dec-10 04:31N 54°55' W 005°34'9 7.5
2019-Dec-10 03:17N 54°51' W 005°48'0 0.0
2019-Dec-10 02:53N 54°51' W 005°48'0 0.0
2019-Dec-10 01:59N 54°51' W 005°48'6 1.0
2019-Dec-09 20:25N 54°54' W 005°39'613.8
2019-Dec-09 20:00N 54°51' W 005°48'0 0.0
2019-Dec-09 06:49N 54°51' W 005°48'0 0.0
2019-Dec-08 22:04N 54°51' W 005°48'21 4.9
2019-Dec-08 17:45N 54°60' W 005°14'1417.9
2019-Dec-08 16:59N 54°54' W 005°36'14 1.7
2019-Dec-08 08:45N 55°01' W 005°14'22 4.1
2019-Dec-08 03:24N 54°51' W 005°48'0 0.0
2019-Dec-08 03:00N 54°51' W 005°48'0 0.0
2019-Dec-08 02:24N 54°51' W 005°48'0 0.0
2019-Dec-08 01:21N 54°51' W 005°48'0 0.0
2019-Dec-07 23:30N 54°51' W 005°48'20 6.7
2019-Dec-07 20:27N 55°00' W 005°16'20 4.0
2019-Dec-07 15:22N 54°51' W 005°48'1615.2
2019-Dec-07 14:19N 54°59' W 005°23'16 4.2
2019-Dec-07 10:30N 54°51' W 005°48'0 0.1
2019-Dec-07 09:28N 54°51' W 005°48'7 1.3
2019-Dec-07 04:15N 54°54' W 005°37'7 4.7
2019-Dec-07 02:50N 54°51' W 005°48'15 7.8
2019-Dec-07 00:55N 54°58' W 005°25'15 3.0
2019-Dec-06 20:00N 54°51' W 005°48'0 0.1
2019-Dec-06 19:13N 54°51' W 005°48'13 2.6
2019-Dec-06 14:17N 54°56' W 005°28'717.7
2019-Dec-06 13:54N 54°54' W 005°38'6 6.3
2019-Dec-06 12:55N 54°51' W 005°48'0 0.0
2019-Dec-06 12:29N 54°51' W 005°48'0 0.0
2019-Dec-06 06:48N 54°51' W 005°48'0 0.0
2019-Dec-06 06:24N 54°51' W 005°48'21 4.1
2019-Dec-06 01:13N 54°60' W 005°14'21 7.8
2019-Dec-05 22:29N 54°51' W 005°48'9 1.6
2019-Dec-05 17:11N 54°55' W 005°35'912.6
2019-Dec-05 16:30N 54°51' W 005°48'0 0.0
2019-Dec-05 15:30N 54°51' W 005°48'22 2.1
2019-Dec-05 05:12N 55°00' W 005°14'1318.3
2019-Dec-05 04:30N 54°55' W 005°34'9 3.6
2019-Dec-05 02:00N 54°51' W 005°48'2016.6
2019-Dec-05 00:48N 55°01' W 005°18'20 3.2
2019-Dec-04 18:36N 54°51' W 005°48'15 1.5
2019-Dec-04 08:21N 54°57' W 005°24'15 7.1
2019-Dec-04 06:14N 54°51' W 005°48'8 1.4
2019-Dec-04 00:27N 54°54' W 005°34'4 1.3
2019-Dec-03 21:30N 54°53' W 005°41'1516.8
2019-Dec-03 20:34N 55°00' W 005°17'13 3.6
2019-Dec-03 16:58N 54°54' W 005°37'7 0.9
2019-Dec-03 09:29N 54°51' W 005°48'22 5.1
2019-Dec-03 05:13N 55°01' W 005°14'1317.6
2019-Dec-03 04:30N 54°55' W 005°34'916.1
2019-Dec-03 03:57N 54°51' W 005°48'0 0.2
2019-Dec-03 03:14N 54°51' W 005°48'23 8.6
2019-Dec-03 00:30N 55°01' W 005°11'0 0.1
2019-Dec-02 21:23N 55°01' W 005°10'2411.4
2019-Dec-02 19:17N 54°51' W 005°48'0 0.0
2019-Dec-02 18:21N 54°51' W 005°48'1615.9
2019-Dec-02 17:19N 54°59' W 005°23'8 0.8
2019-Dec-02 08:08N 54°55' W 005°34'913.0
2019-Dec-02 07:26N 54°51' W 005°48'0 0.0
2019-Dec-02 06:42N 54°51' W 005°48'0 0.0
2019-Dec-02 05:58N 54°51' W 005°48'0 0.0
2019-Dec-01 16:29N 54°51' W 005°48'  

Dump ship's entire track history